sensor_id;sensor_type;location;lat;lon;timestamp;P1;durP1;ratioP1;P2;durP2;ratioP2
11042;SDS011;5574;48.786;10.120;2024-02-21T00:00:45;8.93;;;5.33;;
11042;SDS011;5574;48.786;10.120;2024-02-21T00:03:11;8.07;;;5.57;;
11042;SDS011;5574;48.786;10.120;2024-02-21T00:05:38;7.47;;;4.93;;
11042;SDS011;5574;48.786;10.120;2024-02-21T00:08:05;6.93;;;4.53;;
11042;SDS011;5574;48.786;10.120;2024-02-21T00:10:33;7.07;;;4.53;;
11042;SDS011;5574;48.786;10.120;2024-02-21T00:13:00;8.37;;;4.57;;
11042;SDS011;5574;48.786;10.120;2024-02-21T00:15:27;10.67;;;5.00;;
11042;SDS011;5574;48.786;10.120;2024-02-21T00:17:54;8.13;;;5.20;;
11042;SDS011;5574;48.786;10.120;2024-02-21T00:20:20;8.57;;;5.17;;
11042;SDS011;5574;48.786;10.120;2024-02-21T00:22:47;7.60;;;4.57;;
11042;SDS011;5574;48.786;10.120;2024-02-21T00:25:14;11.50;;;5.20;;
11042;SDS011;5574;48.786;10.120;2024-02-21T00:27:42;8.03;;;4.73;;
11042;SDS011;5574;48.786;10.120;2024-02-21T00:30:09;7.93;;;4.63;;
11042;SDS011;5574;48.786;10.120;2024-02-21T00:32:36;6.20;;;4.37;;
11042;SDS011;5574;48.786;10.120;2024-02-21T00:35:03;10.30;;;4.60;;
11042;SDS011;5574;48.786;10.120;2024-02-21T00:37:30;12.30;;;4.40;;
11042;SDS011;5574;48.786;10.120;2024-02-21T00:39:57;6.83;;;4.70;;
11042;SDS011;5574;48.786;10.120;2024-02-21T00:42:24;8.97;;;4.70;;
11042;SDS011;5574;48.786;10.120;2024-02-21T00:44:52;8.67;;;4.77;;
11042;SDS011;5574;48.786;10.120;2024-02-21T00:47:18;9.70;;;4.83;;
11042;SDS011;5574;48.786;10.120;2024-02-21T00:49:45;6.53;;;4.40;;
11042;SDS011;5574;48.786;10.120;2024-02-21T00:52:12;7.40;;;4.60;;
11042;SDS011;5574;48.786;10.120;2024-02-21T00:54:38;9.33;;;4.73;;
11042;SDS011;5574;48.786;10.120;2024-02-21T00:57:05;7.90;;;4.40;;
11042;SDS011;5574;48.786;10.120;2024-02-21T00:59:32;8.50;;;5.00;;
11042;SDS011;5574;48.786;10.120;2024-02-21T01:02:00;5.47;;;4.00;;
11042;SDS011;5574;48.786;10.120;2024-02-21T01:04:26;9.57;;;4.80;;
11042;SDS011;5574;48.786;10.120;2024-02-21T01:06:53;6.83;;;4.60;;
11042;SDS011;5574;48.786;10.120;2024-02-21T01:09:20;7.93;;;4.57;;
11042;SDS011;5574;48.786;10.120;2024-02-21T01:11:46;6.50;;;4.00;;
11042;SDS011;5574;48.786;10.120;2024-02-21T01:14:13;6.13;;;3.60;;
11042;SDS011;5574;48.786;10.120;2024-02-21T01:16:40;9.07;;;4.10;;
11042;SDS011;5574;48.786;10.120;2024-02-21T01:19:08;5.50;;;4.30;;
11042;SDS011;5574;48.786;10.120;2024-02-21T01:21:34;8.23;;;4.23;;
11042;SDS011;5574;48.786;10.120;2024-02-21T01:24:01;7.07;;;3.87;;
11042;SDS011;5574;48.786;10.120;2024-02-21T01:26:28;7.03;;;4.30;;
11042;SDS011;5574;48.786;10.120;2024-02-21T01:28:54;10.10;;;4.37;;
11042;SDS011;5574;48.786;10.120;2024-02-21T01:31:21;10.47;;;4.73;;
11042;SDS011;5574;48.786;10.120;2024-02-21T01:33:48;5.20;;;4.50;;
11042;SDS011;5574;48.786;10.120;2024-02-21T01:36:16;7.80;;;4.60;;
11042;SDS011;5574;48.786;10.120;2024-02-21T01:38:43;8.60;;;5.00;;
11042;SDS011;5574;48.786;10.120;2024-02-21T01:41:10;8.83;;;5.57;;
11042;SDS011;5574;48.786;10.120;2024-02-21T01:43:36;8.10;;;4.80;;
11042;SDS011;5574;48.786;10.120;2024-02-21T01:46:03;5.73;;;4.87;;
11042;SDS011;5574;48.786;10.120;2024-02-21T01:48:30;6.93;;;4.60;;
11042;SDS011;5574;48.786;10.120;2024-02-21T01:50:56;7.93;;;4.60;;
11042;SDS011;5574;48.786;10.120;2024-02-21T01:53:27;8.67;;;4.83;;
11042;SDS011;5574;48.786;10.120;2024-02-21T01:55:56;9.47;;;5.23;;
11042;SDS011;5574;48.786;10.120;2024-02-21T01:58:23;10.20;;;5.10;;
11042;SDS011;5574;48.786;10.120;2024-02-21T02:00:50;8.57;;;5.03;;
11042;SDS011;5574;48.786;10.120;2024-02-21T02:03:17;8.33;;;5.03;;
11042;SDS011;5574;48.786;10.120;2024-02-21T02:05:44;6.90;;;4.50;;
11042;SDS011;5574;48.786;10.120;2024-02-21T02:08:13;7.57;;;4.50;;
11042;SDS011;5574;48.786;10.120;2024-02-21T02:10:41;6.27;;;4.50;;
11042;SDS011;5574;48.786;10.120;2024-02-21T02:13:09;8.20;;;4.87;;
11042;SDS011;5574;48.786;10.120;2024-02-21T02:15:39;6.03;;;4.97;;
11042;SDS011;5574;48.786;10.120;2024-02-21T02:18:06;8.37;;;4.70;;
11042;SDS011;5574;48.786;10.120;2024-02-21T02:20:33;7.77;;;5.07;;
11042;SDS011;5574;48.786;10.120;2024-02-21T02:23:01;6.67;;;4.43;;
11042;SDS011;5574;48.786;10.120;2024-02-21T02:25:34;7.17;;;4.10;;
11042;SDS011;5574;48.786;10.120;2024-02-21T02:28:02;8.37;;;4.43;;
11042;SDS011;5574;48.786;10.120;2024-02-21T02:30:31;5.73;;;3.73;;
11042;SDS011;5574;48.786;10.120;2024-02-21T02:32:58;6.87;;;4.70;;
11042;SDS011;5574;48.786;10.120;2024-02-21T02:35:25;6.93;;;4.37;;
11042;SDS011;5574;48.786;10.120;2024-02-21T02:37:52;8.03;;;4.00;;
11042;SDS011;5574;48.786;10.120;2024-02-21T02:40:19;7.57;;;4.60;;
11042;SDS011;5574;48.786;10.120;2024-02-21T02:42:47;9.50;;;4.97;;
11042;SDS011;5574;48.786;10.120;2024-02-21T02:45:14;6.30;;;4.20;;
11042;SDS011;5574;48.786;10.120;2024-02-21T02:47:41;8.43;;;4.10;;
11042;SDS011;5574;48.786;10.120;2024-02-21T02:50:08;7.57;;;4.17;;
11042;SDS011;5574;48.786;10.120;2024-02-21T02:52:35;5.33;;;3.60;;
11042;SDS011;5574;48.786;10.120;2024-02-21T02:55:02;5.07;;;3.37;;
11042;SDS011;5574;48.786;10.120;2024-02-21T02:57:29;5.33;;;3.47;;
11042;SDS011;5574;48.786;10.120;2024-02-21T02:59:57;6.47;;;3.70;;
11042;SDS011;5574;48.786;10.120;2024-02-21T03:02:24;7.33;;;3.83;;
11042;SDS011;5574;48.786;10.120;2024-02-21T03:04:51;4.93;;;3.83;;
11042;SDS011;5574;48.786;10.120;2024-02-21T03:07:18;7.33;;;3.50;;
11042;SDS011;5574;48.786;10.120;2024-02-21T03:09:45;9.63;;;3.70;;
11042;SDS011;5574;48.786;10.120;2024-02-21T03:12:12;5.90;;;3.87;;
11042;SDS011;5574;48.786;10.120;2024-02-21T03:14:44;6.97;;;4.30;;
11042;SDS011;5574;48.786;10.120;2024-02-21T03:17:12;8.10;;;4.33;;
11042;SDS011;5574;48.786;10.120;2024-02-21T03:19:38;9.47;;;4.83;;
11042;SDS011;5574;48.786;10.120;2024-02-21T03:22:05;7.57;;;4.20;;
11042;SDS011;5574;48.786;10.120;2024-02-21T03:24:32;6.80;;;3.97;;
11042;SDS011;5574;48.786;10.120;2024-02-21T03:26:59;5.03;;;3.30;;
11042;SDS011;5574;48.786;10.120;2024-02-21T03:29:26;7.13;;;3.20;;
11042;SDS011;5574;48.786;10.120;2024-02-21T03:31:53;7.07;;;3.17;;
11042;SDS011;5574;48.786;10.120;2024-02-21T03:34:21;8.70;;;3.30;;
11042;SDS011;5574;48.786;10.120;2024-02-21T03:36:47;5.57;;;2.97;;
11042;SDS011;5574;48.786;10.120;2024-02-21T03:39:14;5.57;;;3.10;;
11042;SDS011;5574;48.786;10.120;2024-02-21T03:41:41;7.63;;;3.20;;
11042;SDS011;5574;48.786;10.120;2024-02-21T03:44:08;5.83;;;3.10;;
11042;SDS011;5574;48.786;10.120;2024-02-21T03:46:35;9.40;;;2.97;;
11042;SDS011;5574;48.786;10.120;2024-02-21T03:49:01;6.10;;;3.30;;
11042;SDS011;5574;48.786;10.120;2024-02-21T03:51:29;7.57;;;3.27;;
11042;SDS011;5574;48.786;10.120;2024-02-21T03:53:56;3.73;;;2.77;;
11042;SDS011;5574;48.786;10.120;2024-02-21T03:56:23;5.93;;;3.07;;
11042;SDS011;5574;48.786;10.120;2024-02-21T03:58:49;5.63;;;2.63;;
11042;SDS011;5574;48.786;10.120;2024-02-21T04:01:16;3.43;;;2.97;;
11042;SDS011;5574;48.786;10.120;2024-02-21T04:03:43;5.57;;;3.10;;
11042;SDS011;5574;48.786;10.120;2024-02-21T04:06:10;6.23;;;3.10;;
11042;SDS011;5574;48.786;10.120;2024-02-21T04:08:38;4.97;;;3.03;;
11042;SDS011;5574;48.786;10.120;2024-02-21T04:11:05;4.93;;;3.27;;
11042;SDS011;5574;48.786;10.120;2024-02-21T04:13:32;4.47;;;2.80;;
11042;SDS011;5574;48.786;10.120;2024-02-21T04:15:58;4.57;;;3.03;;
11042;SDS011;5574;48.786;10.120;2024-02-21T04:18:26;5.90;;;3.23;;
11042;SDS011;5574;48.786;10.120;2024-02-21T04:20:52;4.57;;;3.00;;
11042;SDS011;5574;48.786;10.120;2024-02-21T04:23:19;5.43;;;3.00;;
11042;SDS011;5574;48.786;10.120;2024-02-21T04:25:47;6.50;;;3.40;;
11042;SDS011;5574;48.786;10.120;2024-02-21T04:28:14;7.00;;;3.63;;
11042;SDS011;5574;48.786;10.120;2024-02-21T04:30:40;6.83;;;3.60;;
11042;SDS011;5574;48.786;10.120;2024-02-21T04:33:07;4.27;;;3.13;;
11042;SDS011;5574;48.786;10.120;2024-02-21T04:35:35;5.07;;;3.10;;
11042;SDS011;5574;48.786;10.120;2024-02-21T04:38:03;5.33;;;3.03;;
11042;SDS011;5574;48.786;10.120;2024-02-21T04:40:29;4.60;;;2.70;;
11042;SDS011;5574;48.786;10.120;2024-02-21T04:42:58;5.53;;;2.70;;
11042;SDS011;5574;48.786;10.120;2024-02-21T04:45:24;5.77;;;3.10;;
11042;SDS011;5574;48.786;10.120;2024-02-21T04:47:51;5.17;;;2.90;;
11042;SDS011;5574;48.786;10.120;2024-02-21T04:50:18;4.20;;;3.00;;
11042;SDS011;5574;48.786;10.120;2024-02-21T04:52:44;7.30;;;3.23;;
11042;SDS011;5574;48.786;10.120;2024-02-21T04:55:11;6.07;;;3.47;;
11042;SDS011;5574;48.786;10.120;2024-02-21T04:57:38;8.90;;;3.57;;
11042;SDS011;5574;48.786;10.120;2024-02-21T05:00:07;4.63;;;3.37;;
11042;SDS011;5574;48.786;10.120;2024-02-21T05:02:34;5.17;;;2.90;;
11042;SDS011;5574;48.786;10.120;2024-02-21T05:05:01;5.40;;;3.00;;
11042;SDS011;5574;48.786;10.120;2024-02-21T05:07:28;5.07;;;3.00;;
11042;SDS011;5574;48.786;10.120;2024-02-21T05:09:55;4.00;;;2.63;;
11042;SDS011;5574;48.786;10.120;2024-02-21T05:12:22;5.00;;;2.90;;
11042;SDS011;5574;48.786;10.120;2024-02-21T05:14:48;7.37;;;2.23;;
11042;SDS011;5574;48.786;10.120;2024-02-21T05:17:16;4.57;;;2.30;;
11042;SDS011;5574;48.786;10.120;2024-02-21T05:19:43;4.77;;;2.83;;
11042;SDS011;5574;48.786;10.120;2024-02-21T05:22:10;4.53;;;2.83;;
11042;SDS011;5574;48.786;10.120;2024-02-21T05:24:38;3.97;;;2.97;;
11042;SDS011;5574;48.786;10.120;2024-02-21T05:27:05;4.60;;;2.70;;
11042;SDS011;5574;48.786;10.120;2024-02-21T05:29:32;4.77;;;2.70;;
11042;SDS011;5574;48.786;10.120;2024-02-21T05:32:00;4.23;;;2.37;;
11042;SDS011;5574;48.786;10.120;2024-02-21T05:34:28;6.47;;;3.60;;
11042;SDS011;5574;48.786;10.120;2024-02-21T05:36:55;3.93;;;2.90;;
11042;SDS011;5574;48.786;10.120;2024-02-21T05:39:22;4.70;;;3.30;;
11042;SDS011;5574;48.786;10.120;2024-02-21T05:41:49;4.43;;;3.40;;
11042;SDS011;5574;48.786;10.120;2024-02-21T05:44:16;4.53;;;3.30;;
11042;SDS011;5574;48.786;10.120;2024-02-21T05:46:43;6.10;;;3.77;;
11042;SDS011;5574;48.786;10.120;2024-02-21T05:49:10;5.60;;;2.77;;
11042;SDS011;5574;48.786;10.120;2024-02-21T05:51:38;6.57;;;2.90;;
11042;SDS011;5574;48.786;10.120;2024-02-21T05:54:05;6.83;;;2.90;;
11042;SDS011;5574;48.786;10.120;2024-02-21T05:56:32;4.07;;;2.60;;
11042;SDS011;5574;48.786;10.120;2024-02-21T05:58:59;4.27;;;2.70;;
11042;SDS011;5574;48.786;10.120;2024-02-21T06:01:25;6.00;;;3.27;;
11042;SDS011;5574;48.786;10.120;2024-02-21T06:03:52;5.03;;;2.83;;
11042;SDS011;5574;48.786;10.120;2024-02-21T06:06:19;3.93;;;2.60;;
11042;SDS011;5574;48.786;10.120;2024-02-21T06:08:48;3.97;;;2.57;;
11042;SDS011;5574;48.786;10.120;2024-02-21T06:11:14;3.73;;;2.50;;
11042;SDS011;5574;48.786;10.120;2024-02-21T06:13:41;4.03;;;2.60;;
11042;SDS011;5574;48.786;10.120;2024-02-21T06:16:08;5.37;;;2.60;;
11042;SDS011;5574;48.786;10.120;2024-02-21T06:18:35;4.27;;;2.20;;
11042;SDS011;5574;48.786;10.120;2024-02-21T06:21:03;3.57;;;2.30;;
11042;SDS011;5574;48.786;10.120;2024-02-21T06:23:29;5.80;;;2.20;;
11042;SDS011;5574;48.786;10.120;2024-02-21T06:25:57;3.53;;;2.50;;
11042;SDS011;5574;48.786;10.120;2024-02-21T06:28:24;4.07;;;2.47;;
11042;SDS011;5574;48.786;10.120;2024-02-21T06:30:52;5.60;;;2.30;;
11042;SDS011;5574;48.786;10.120;2024-02-21T06:33:18;4.23;;;2.30;;
11042;SDS011;5574;48.786;10.120;2024-02-21T06:35:47;5.43;;;2.40;;
11042;SDS011;5574;48.786;10.120;2024-02-21T06:38:17;3.93;;;2.23;;
11042;SDS011;5574;48.786;10.120;2024-02-21T06:40:43;2.50;;;2.03;;
11042;SDS011;5574;48.786;10.120;2024-02-21T06:43:16;3.50;;;2.10;;
11042;SDS011;5574;48.786;10.120;2024-02-21T06:45:43;4.27;;;2.30;;
11042;SDS011;5574;48.786;10.120;2024-02-21T06:48:12;5.23;;;3.70;;
11042;SDS011;5574;48.786;10.120;2024-02-21T06:50:39;6.53;;;3.50;;
11042;SDS011;5574;48.786;10.120;2024-02-21T06:53:05;3.97;;;2.40;;
11042;SDS011;5574;48.786;10.120;2024-02-21T06:55:32;3.67;;;2.00;;
11042;SDS011;5574;48.786;10.120;2024-02-21T06:57:59;5.00;;;2.27;;
11042;SDS011;5574;48.786;10.120;2024-02-21T07:00:27;8.10;;;3.87;;
11042;SDS011;5574;48.786;10.120;2024-02-21T07:02:54;5.60;;;3.80;;
11042;SDS011;5574;48.786;10.120;2024-02-21T07:05:21;7.17;;;4.07;;
11042;SDS011;5574;48.786;10.120;2024-02-21T07:07:47;6.27;;;3.70;;
11042;SDS011;5574;48.786;10.120;2024-02-21T07:10:14;5.43;;;2.83;;
11042;SDS011;5574;48.786;10.120;2024-02-21T07:12:41;6.07;;;3.53;;
11042;SDS011;5574;48.786;10.120;2024-02-21T07:15:08;8.90;;;3.37;;
11042;SDS011;5574;48.786;10.120;2024-02-21T07:17:36;6.57;;;3.37;;
11042;SDS011;5574;48.786;10.120;2024-02-21T07:20:03;7.27;;;3.30;;
11042;SDS011;5574;48.786;10.120;2024-02-21T07:22:30;7.57;;;3.83;;
11042;SDS011;5574;48.786;10.120;2024-02-21T07:24:57;5.60;;;4.07;;
11042;SDS011;5574;48.786;10.120;2024-02-21T07:27:24;8.50;;;4.47;;
11042;SDS011;5574;48.786;10.120;2024-02-21T07:29:53;5.43;;;3.67;;
11042;SDS011;5574;48.786;10.120;2024-02-21T07:32:20;6.70;;;3.60;;
11042;SDS011;5574;48.786;10.120;2024-02-21T07:34:48;6.17;;;3.70;;
11042;SDS011;5574;48.786;10.120;2024-02-21T07:37:14;6.53;;;4.30;;
11042;SDS011;5574;48.786;10.120;2024-02-21T07:39:41;5.53;;;4.20;;
11042;SDS011;5574;48.786;10.120;2024-02-21T07:42:08;6.93;;;3.43;;
11042;SDS011;5574;48.786;10.120;2024-02-21T07:44:34;9.33;;;4.73;;
11042;SDS011;5574;48.786;10.120;2024-02-21T07:47:01;5.70;;;3.90;;
11042;SDS011;5574;48.786;10.120;2024-02-21T07:49:28;6.43;;;3.90;;
11042;SDS011;5574;48.786;10.120;2024-02-21T07:51:56;6.03;;;3.30;;
11042;SDS011;5574;48.786;10.120;2024-02-21T07:54:22;7.17;;;3.93;;
11042;SDS011;5574;48.786;10.120;2024-02-21T07:56:49;6.30;;;3.73;;
11042;SDS011;5574;48.786;10.120;2024-02-21T07:59:16;6.27;;;3.63;;
11042;SDS011;5574;48.786;10.120;2024-02-21T08:01:43;6.30;;;3.80;;
11042;SDS011;5574;48.786;10.120;2024-02-21T08:04:10;6.70;;;4.10;;
11042;SDS011;5574;48.786;10.120;2024-02-21T08:06:37;6.23;;;3.63;;
11042;SDS011;5574;48.786;10.120;2024-02-21T08:09:05;4.73;;;3.37;;
11042;SDS011;5574;48.786;10.120;2024-02-21T08:11:31;4.87;;;3.40;;
11042;SDS011;5574;48.786;10.120;2024-02-21T08:13:58;5.03;;;3.53;;
11042;SDS011;5574;48.786;10.120;2024-02-21T08:16:26;5.30;;;3.53;;
11042;SDS011;5574;48.786;10.120;2024-02-21T08:18:53;6.97;;;3.67;;
11042;SDS011;5574;48.786;10.120;2024-02-21T08:21:19;5.13;;;3.40;;
11042;SDS011;5574;48.786;10.120;2024-02-21T08:23:46;7.03;;;4.03;;
11042;SDS011;5574;48.786;10.120;2024-02-21T08:26:17;6.67;;;3.70;;
11042;SDS011;5574;48.786;10.120;2024-02-21T08:28:44;4.73;;;3.33;;
11042;SDS011;5574;48.786;10.120;2024-02-21T08:31:11;6.77;;;3.67;;
11042;SDS011;5574;48.786;10.120;2024-02-21T08:33:44;9.47;;;3.70;;
11042;SDS011;5574;48.786;10.120;2024-02-21T08:36:16;6.30;;;3.43;;
11042;SDS011;5574;48.786;10.120;2024-02-21T08:38:44;7.70;;;3.00;;
11042;SDS011;5574;48.786;10.120;2024-02-21T08:41:10;5.87;;;3.20;;
11042;SDS011;5574;48.786;10.120;2024-02-21T08:43:38;6.00;;;3.07;;
11042;SDS011;5574;48.786;10.120;2024-02-21T08:46:05;4.27;;;2.50;;
11042;SDS011;5574;48.786;10.120;2024-02-21T08:48:32;4.17;;;2.20;;
11042;SDS011;5574;48.786;10.120;2024-02-21T08:50:59;5.73;;;2.10;;
11042;SDS011;5574;48.786;10.120;2024-02-21T08:53:26;5.40;;;2.23;;
11042;SDS011;5574;48.786;10.120;2024-02-21T08:55:52;3.17;;;1.80;;
11042;SDS011;5574;48.786;10.120;2024-02-21T08:58:19;4.10;;;1.80;;
11042;SDS011;5574;48.786;10.120;2024-02-21T09:00:49;4.00;;;1.70;;
11042;SDS011;5574;48.786;10.120;2024-02-21T09:03:16;4.83;;;1.80;;
11042;SDS011;5574;48.786;10.120;2024-02-21T09:05:45;6.57;;;2.13;;
11042;SDS011;5574;48.786;10.120;2024-02-21T09:08:11;4.10;;;1.70;;
11042;SDS011;5574;48.786;10.120;2024-02-21T09:10:39;3.23;;;1.77;;
11042;SDS011;5574;48.786;10.120;2024-02-21T09:13:05;2.30;;;1.67;;
11042;SDS011;5574;48.786;10.120;2024-02-21T09:15:33;5.73;;;1.53;;
11042;SDS011;5574;48.786;10.120;2024-02-21T09:18:01;3.73;;;1.80;;
11042;SDS011;5574;48.786;10.120;2024-02-21T09:20:28;3.40;;;1.60;;
11042;SDS011;5574;48.786;10.120;2024-02-21T09:22:55;3.53;;;1.70;;
11042;SDS011;5574;48.786;10.120;2024-02-21T09:25:21;4.03;;;1.60;;
11042;SDS011;5574;48.786;10.120;2024-02-21T09:27:48;4.80;;;1.47;;
11042;SDS011;5574;48.786;10.120;2024-02-21T09:30:17;4.00;;;1.53;;
11042;SDS011;5574;48.786;10.120;2024-02-21T09:32:45;3.13;;;1.43;;
11042;SDS011;5574;48.786;10.120;2024-02-21T09:35:13;3.87;;;1.60;;
11042;SDS011;5574;48.786;10.120;2024-02-21T09:37:40;3.33;;;1.50;;
11042;SDS011;5574;48.786;10.120;2024-02-21T09:40:07;2.67;;;1.50;;
11042;SDS011;5574;48.786;10.120;2024-02-21T09:42:36;3.47;;;1.37;;
11042;SDS011;5574;48.786;10.120;2024-02-21T09:45:04;3.10;;;1.50;;
11042;SDS011;5574;48.786;10.120;2024-02-21T09:47:41;6.53;;;2.00;;
11042;SDS011;5574;48.786;10.120;2024-02-21T09:50:17;3.77;;;1.57;;
11042;SDS011;5574;48.786;10.120;2024-02-21T09:52:47;5.30;;;1.30;;
11042;SDS011;5574;48.786;10.120;2024-02-21T09:55:15;4.73;;;1.50;;
11042;SDS011;5574;48.786;10.120;2024-02-21T09:57:44;4.73;;;1.60;;
11042;SDS011;5574;48.786;10.120;2024-02-21T10:00:11;1.57;;;1.10;;
11042;SDS011;5574;48.786;10.120;2024-02-21T10:02:46;2.00;;;1.20;;
11042;SDS011;5574;48.786;10.120;2024-02-21T10:05:13;2.10;;;1.30;;
11042;SDS011;5574;48.786;10.120;2024-02-21T10:07:41;2.07;;;1.30;;
11042;SDS011;5574;48.786;10.120;2024-02-21T10:10:08;2.40;;;1.10;;
11042;SDS011;5574;48.786;10.120;2024-02-21T10:12:35;3.20;;;1.10;;
11042;SDS011;5574;48.786;10.120;2024-02-21T10:15:02;3.10;;;1.20;;
11042;SDS011;5574;48.786;10.120;2024-02-21T10:17:29;3.00;;;1.30;;
11042;SDS011;5574;48.786;10.120;2024-02-21T10:20:06;2.53;;;1.03;;
11042;SDS011;5574;48.786;10.120;2024-02-21T10:22:33;3.87;;;1.50;;
11042;SDS011;5574;48.786;10.120;2024-02-21T10:25:07;4.70;;;1.50;;
11042;SDS011;5574;48.786;10.120;2024-02-21T10:27:34;3.37;;;1.20;;
11042;SDS011;5574;48.786;10.120;2024-02-21T10:30:02;2.23;;;1.20;;
11042;SDS011;5574;48.786;10.120;2024-02-21T10:32:29;4.40;;;1.50;;
11042;SDS011;5574;48.786;10.120;2024-02-21T10:35:00;3.43;;;1.33;;
11042;SDS011;5574;48.786;10.120;2024-02-21T10:37:29;7.50;;;1.87;;
11042;SDS011;5574;48.786;10.120;2024-02-21T10:39:56;4.40;;;1.60;;
11042;SDS011;5574;48.786;10.120;2024-02-21T10:42:24;2.63;;;1.27;;
11042;SDS011;5574;48.786;10.120;2024-02-21T10:44:54;8.70;;;2.13;;
11042;SDS011;5574;48.786;10.120;2024-02-21T10:47:26;4.17;;;1.20;;
11042;SDS011;5574;48.786;10.120;2024-02-21T10:49:57;2.93;;;1.30;;
11042;SDS011;5574;48.786;10.120;2024-02-21T10:52:28;2.90;;;1.20;;
11042;SDS011;5574;48.786;10.120;2024-02-21T10:55:04;4.43;;;1.57;;
11042;SDS011;5574;48.786;10.120;2024-02-21T10:57:37;6.97;;;1.40;;
11042;SDS011;5574;48.786;10.120;2024-02-21T11:00:04;16.17;;;2.10;;
11042;SDS011;5574;48.786;10.120;2024-02-21T11:02:35;1.93;;;1.10;;
11042;SDS011;5574;48.786;10.120;2024-02-21T11:05:02;1.80;;;1.20;;
11042;SDS011;5574;48.786;10.120;2024-02-21T11:07:30;1.67;;;1.07;;
11042;SDS011;5574;48.786;10.120;2024-02-21T11:09:58;2.30;;;1.03;;
11042;SDS011;5574;48.786;10.120;2024-02-21T11:12:25;3.30;;;1.30;;
11042;SDS011;5574;48.786;10.120;2024-02-21T11:14:54;2.20;;;1.20;;
11042;SDS011;5574;48.786;10.120;2024-02-21T11:17:30;2.27;;;0.97;;
11042;SDS011;5574;48.786;10.120;2024-02-21T11:19:57;2.37;;;1.10;;
11042;SDS011;5574;48.786;10.120;2024-02-21T11:22:26;2.43;;;1.30;;
11042;SDS011;5574;48.786;10.120;2024-02-21T11:25:05;2.73;;;1.10;;
11042;SDS011;5574;48.786;10.120;2024-02-21T11:27:34;2.10;;;1.13;;
11042;SDS011;5574;48.786;10.120;2024-02-21T11:30:03;2.53;;;1.43;;
11042;SDS011;5574;48.786;10.120;2024-02-21T11:32:31;4.53;;;1.40;;
11042;SDS011;5574;48.786;10.120;2024-02-21T11:34:58;2.70;;;1.30;;
11042;SDS011;5574;48.786;10.120;2024-02-21T11:37:27;2.83;;;1.43;;
11042;SDS011;5574;48.786;10.120;2024-02-21T11:39:54;1.70;;;1.13;;
11042;SDS011;5574;48.786;10.120;2024-02-21T11:42:21;2.03;;;0.90;;
11042;SDS011;5574;48.786;10.120;2024-02-21T11:44:48;2.27;;;1.43;;
11042;SDS011;5574;48.786;10.120;2024-02-21T11:47:16;2.10;;;1.20;;
11042;SDS011;5574;48.786;10.120;2024-02-21T11:49:43;1.80;;;1.03;;
11042;SDS011;5574;48.786;10.120;2024-02-21T11:52:11;2.37;;;1.10;;
11042;SDS011;5574;48.786;10.120;2024-02-21T11:54:40;12.50;;;1.73;;
11042;SDS011;5574;48.786;10.120;2024-02-21T11:57:07;7.50;;;1.70;;
11042;SDS011;5574;48.786;10.120;2024-02-21T11:59:34;2.70;;;1.20;;
11042;SDS011;5574;48.786;10.120;2024-02-21T12:02:00;1.80;;;1.13;;
11042;SDS011;5574;48.786;10.120;2024-02-21T12:04:29;3.40;;;1.17;;
11042;SDS011;5574;48.786;10.120;2024-02-21T12:06:57;1.73;;;1.20;;
11042;SDS011;5574;48.786;10.120;2024-02-21T12:09:24;2.00;;;1.20;;
11042;SDS011;5574;48.786;10.120;2024-02-21T12:11:57;2.97;;;1.23;;
11042;SDS011;5574;48.786;10.120;2024-02-21T12:14:25;5.03;;;1.30;;
11042;SDS011;5574;48.786;10.120;2024-02-21T12:16:52;2.53;;;1.17;;
11042;SDS011;5574;48.786;10.120;2024-02-21T12:19:19;4.00;;;1.10;;
11042;SDS011;5574;48.786;10.120;2024-02-21T12:21:48;2.33;;;1.20;;
11042;SDS011;5574;48.786;10.120;2024-02-21T12:24:16;2.13;;;1.30;;
11042;SDS011;5574;48.786;10.120;2024-02-21T12:26:45;3.53;;;1.10;;
11042;SDS011;5574;48.786;10.120;2024-02-21T12:29:11;1.77;;;1.10;;
11042;SDS011;5574;48.786;10.120;2024-02-21T12:31:38;2.33;;;1.00;;
11042;SDS011;5574;48.786;10.120;2024-02-21T12:34:05;5.90;;;1.40;;
11042;SDS011;5574;48.786;10.120;2024-02-21T12:36:35;2.77;;;0.87;;
11042;SDS011;5574;48.786;10.120;2024-02-21T12:39:08;2.70;;;1.23;;
11042;SDS011;5574;48.786;10.120;2024-02-21T12:41:34;2.27;;;0.90;;
11042;SDS011;5574;48.786;10.120;2024-02-21T12:44:03;2.20;;;1.03;;
11042;SDS011;5574;48.786;10.120;2024-02-21T12:46:32;25.40;;;3.40;;
11042;SDS011;5574;48.786;10.120;2024-02-21T12:48:58;2.13;;;0.93;;
11042;SDS011;5574;48.786;10.120;2024-02-21T12:51:25;3.07;;;1.13;;
11042;SDS011;5574;48.786;10.120;2024-02-21T12:53:52;16.80;;;2.17;;
11042;SDS011;5574;48.786;10.120;2024-02-21T12:56:20;19.53;;;3.77;;
11042;SDS011;5574;48.786;10.120;2024-02-21T12:58:47;5.60;;;1.63;;
11042;SDS011;5574;48.786;10.120;2024-02-21T13:01:14;3.37;;;1.50;;
11042;SDS011;5574;48.786;10.120;2024-02-21T13:03:41;3.60;;;1.23;;
11042;SDS011;5574;48.786;10.120;2024-02-21T13:06:08;6.77;;;3.00;;
11042;SDS011;5574;48.786;10.120;2024-02-21T13:08:35;31.07;;;4.70;;
11042;SDS011;5574;48.786;10.120;2024-02-21T13:11:02;14.87;;;3.53;;
11042;SDS011;5574;48.786;10.120;2024-02-21T13:13:31;8.30;;;2.73;;
11042;SDS011;5574;48.786;10.120;2024-02-21T13:15:58;8.13;;;2.63;;
11042;SDS011;5574;48.786;10.120;2024-02-21T13:18:25;3.17;;;2.20;;
11042;SDS011;5574;48.786;10.120;2024-02-21T13:20:52;4.03;;;1.30;;
11042;SDS011;5574;48.786;10.120;2024-02-21T13:23:19;4.47;;;1.50;;
11042;SDS011;5574;48.786;10.120;2024-02-21T13:25:47;4.30;;;1.67;;
11042;SDS011;5574;48.786;10.120;2024-02-21T13:28:14;4.53;;;1.80;;
11042;SDS011;5574;48.786;10.120;2024-02-21T13:30:42;2.23;;;1.90;;
11042;SDS011;5574;48.786;10.120;2024-02-21T13:33:09;3.23;;;1.60;;
11042;SDS011;5574;48.786;10.120;2024-02-21T13:35:37;1.80;;;1.13;;
11042;SDS011;5574;48.786;10.120;2024-02-21T13:38:04;3.30;;;2.00;;
11042;SDS011;5574;48.786;10.120;2024-02-21T13:40:31;1.83;;;1.30;;
11042;SDS011;5574;48.786;10.120;2024-02-21T13:42:57;15.73;;;3.07;;
11042;SDS011;5574;48.786;10.120;2024-02-21T13:45:24;5.97;;;1.60;;
11042;SDS011;5574;48.786;10.120;2024-02-21T13:47:52;2.97;;;2.07;;
11042;SDS011;5574;48.786;10.120;2024-02-21T13:50:19;2.73;;;1.27;;
11042;SDS011;5574;48.786;10.120;2024-02-21T13:52:47;1.93;;;1.00;;
11042;SDS011;5574;48.786;10.120;2024-02-21T13:55:14;92.03;;;11.90;;
11042;SDS011;5574;48.786;10.120;2024-02-21T13:57:41;1.13;;;1.03;;
11042;SDS011;5574;48.786;10.120;2024-02-21T14:00:08;2.47;;;1.10;;
11042;SDS011;5574;48.786;10.120;2024-02-21T14:02:36;3.47;;;1.50;;
11042;SDS011;5574;48.786;10.120;2024-02-21T14:05:05;16.70;;;2.87;;
11042;SDS011;5574;48.786;10.120;2024-02-21T14:07:32;3.47;;;1.30;;
11042;SDS011;5574;48.786;10.120;2024-02-21T14:09:59;4.03;;;1.40;;
11042;SDS011;5574;48.786;10.120;2024-02-21T14:12:25;3.67;;;2.57;;
11042;SDS011;5574;48.786;10.120;2024-02-21T14:14:52;4.17;;;1.60;;
11042;SDS011;5574;48.786;10.120;2024-02-21T14:17:20;21.87;;;3.43;;
11042;SDS011;5574;48.786;10.120;2024-02-21T14:19:46;23.83;;;4.47;;
11042;SDS011;5574;48.786;10.120;2024-02-21T14:22:14;4.57;;;1.50;;
11042;SDS011;5574;48.786;10.120;2024-02-21T14:24:41;16.43;;;2.40;;
11042;SDS011;5574;48.786;10.120;2024-02-21T14:27:08;12.90;;;3.67;;
11042;SDS011;5574;48.786;10.120;2024-02-21T14:29:35;11.83;;;2.70;;
11042;SDS011;5574;48.786;10.120;2024-02-21T14:32:03;7.20;;;3.77;;
11042;SDS011;5574;48.786;10.120;2024-02-21T14:34:30;2.97;;;1.50;;
11042;SDS011;5574;48.786;10.120;2024-02-21T14:36:57;3.67;;;1.47;;
11042;SDS011;5574;48.786;10.120;2024-02-21T14:39:25;5.70;;;1.83;;
11042;SDS011;5574;48.786;10.120;2024-02-21T14:41:53;7.80;;;2.30;;
11042;SDS011;5574;48.786;10.120;2024-02-21T14:44:20;1.63;;;1.30;;
11042;SDS011;5574;48.786;10.120;2024-02-21T14:46:47;2.50;;;1.43;;
11042;SDS011;5574;48.786;10.120;2024-02-21T14:49:14;54.17;;;6.10;;